createdAt,value
2018-11-14T00:00:06.633Z,9.30
2018-11-14T00:02:39.437Z,9.83
2018-11-14T00:05:12.893Z,9.80
2018-11-14T00:07:43.009Z,8.15
2018-11-14T00:10:20.621Z,8.40
2018-11-14T00:12:50.005Z,11.10
2018-11-14T00:15:24.050Z,10.90
2018-11-14T00:17:55.141Z,9.30
2018-11-14T00:20:27.033Z,10.45
2018-11-14T00:22:57.685Z,9.30
2018-11-14T00:25:27.253Z,10.15
2018-11-14T00:27:58.412Z,11.00
2018-11-14T00:30:29.525Z,12.43
2018-11-14T00:33:00.206Z,10.68
2018-11-14T00:35:30.036Z,12.23
2018-11-14T00:38:03.768Z,12.28
2018-11-14T00:40:38.929Z,10.95
2018-11-14T00:43:08.589Z,9.50
2018-11-14T00:45:41.317Z,10.58
2018-11-14T00:48:20.625Z,10.28
2018-11-14T00:50:55.065Z,12.00
2018-11-14T00:56:06.357Z,11.85
2018-11-14T00:58:37.481Z,9.73
2018-11-14T01:01:13.189Z,11.80
2018-11-14T01:03:46.600Z,8.20
2018-11-14T01:06:17.573Z,8.45
2018-11-14T01:08:49.756Z,9.25
2018-11-14T01:11:21.941Z,10.15
2018-11-14T01:13:56.953Z,9.50
2018-11-14T01:16:28.871Z,9.93
2018-11-14T01:19:03.689Z,9.93
2018-11-14T01:21:37.156Z,9.75
2018-11-14T01:24:08.555Z,11.28
2018-11-14T01:26:38.477Z,14.40
2018-11-14T01:29:08.577Z,10.95
2018-11-14T01:31:38.713Z,12.23
2018-11-14T01:34:10.508Z,12.20
2018-11-14T01:36:46.101Z,14.18
2018-11-14T01:39:20.241Z,12.73
2018-11-14T01:41:55.505Z,10.43
2018-11-14T01:44:26.301Z,12.30
2018-11-14T01:46:57.129Z,9.65
2018-11-14T01:49:28.697Z,8.10
2018-11-14T01:51:59.453Z,11.60
2018-11-14T01:54:31.984Z,8.95
2018-11-14T01:57:01.605Z,9.70
2018-11-14T01:59:32.385Z,11.15
2018-11-14T02:02:03.506Z,10.82
2018-11-14T02:04:33.513Z,14.90
2018-11-14T02:07:04.381Z,12.40
2018-11-14T02:09:35.512Z,13.43
2018-11-14T02:12:06.281Z,12.05
2018-11-14T02:14:36.405Z,13.68
2018-11-14T02:17:06.295Z,11.80
2018-11-14T02:19:38.461Z,14.75
2018-11-14T02:22:09.421Z,12.98
2018-11-14T02:24:40.229Z,12.50
2018-11-14T02:27:11.056Z,12.37
2018-11-14T02:29:41.572Z,12.95
2018-11-14T02:32:12.397Z,12.45
2018-11-14T02:34:47.093Z,13.68
2018-11-14T02:37:17.078Z,12.60
2018-11-14T02:39:46.837Z,12.63
2018-11-14T02:42:30.111Z,12.60
2018-11-14T02:45:00.225Z,13.38
2018-11-14T02:47:56.489Z,13.55
2018-11-14T02:50:29.225Z,13.18
2018-11-14T02:53:00.019Z,14.80
2018-11-14T02:55:37.877Z,16.17
2018-11-14T02:58:08.605Z,16.15
2018-11-14T03:00:39.305Z,17.17
2018-11-14T03:03:11.287Z,16.35
2018-11-14T03:05:42.157Z,15.38
2018-11-14T03:08:12.274Z,15.68
2018-11-14T03:10:47.077Z,14.47
2018-11-14T03:13:16.905Z,17.77
2018-11-14T03:15:51.083Z,14.00
2018-11-14T03:18:24.373Z,14.47
2018-11-14T03:20:54.213Z,13.10
2018-11-14T03:23:29.485Z,12.43
2018-11-14T03:25:59.053Z,13.90
2018-11-14T03:28:29.717Z,12.28
2018-11-14T03:31:00.385Z,11.55
2018-11-14T03:33:30.125Z,15.38
2018-11-14T03:36:09.609Z,11.55
2018-11-14T03:38:39.541Z,13.30
2018-11-14T03:41:13.001Z,9.23
2018-11-14T03:43:43.769Z,7.47
2018-11-14T03:46:14.729Z,9.43
2018-11-14T03:48:50.597Z,7.50
2018-11-14T03:51:29.820Z,7.75
2018-11-14T03:54:00.725Z,7.62
2018-11-14T03:56:32.901Z,9.25
2018-11-14T03:59:03.897Z,9.30
2018-11-14T04:01:34.138Z,7.53
2018-11-14T04:04:04.886Z,8.50
2018-11-14T04:06:35.696Z,9.15
2018-11-14T04:09:11.036Z,9.55
2018-11-14T04:11:42.245Z,9.40
2018-11-14T04:14:12.088Z,10.85
2018-11-14T04:16:45.149Z,9.55
2018-11-14T04:19:16.589Z,8.83
2018-11-14T04:21:46.485Z,9.73
2018-11-14T04:24:18.337Z,9.33
2018-11-14T04:26:51.189Z,10.75
2018-11-14T04:29:23.028Z,7.90
2018-11-14T04:31:54.377Z,9.55
2018-11-14T04:34:26.593Z,11.35
2018-11-14T04:37:03.837Z,11.45
2018-11-14T04:39:49.389Z,10.95
2018-11-14T04:42:27.457Z,9.75
2018-11-14T04:44:58.609Z,11.18
2018-11-14T04:47:29.345Z,11.05
2018-11-14T04:50:00.421Z,10.55
2018-11-14T04:52:44.078Z,10.90
2018-11-14T04:55:16.654Z,10.10
2018-11-14T04:57:51.499Z,9.20
2018-11-14T05:00:26.413Z,9.55
2018-11-14T05:02:57.329Z,8.90
2018-11-14T05:05:27.921Z,9.25
2018-11-14T05:08:07.208Z,7.85
2018-11-14T05:10:38.061Z,8.98
2018-11-14T05:13:10.172Z,9.38
2018-11-14T05:15:46.769Z,8.68
2018-11-14T05:18:24.273Z,8.10
2018-11-14T05:21:00.011Z,8.55
2018-11-14T05:23:33.977Z,6.95
2018-11-14T05:26:03.930Z,6.90
2018-11-14T05:28:35.737Z,7.85
2018-11-14T05:31:05.409Z,7.00
2018-11-14T05:33:38.525Z,7.25
2018-11-14T05:36:08.227Z,8.28
2018-11-14T05:38:42.529Z,7.45
2018-11-14T05:41:13.329Z,7.22
2018-11-14T05:43:47.710Z,8.03
2018-11-14T05:46:18.461Z,9.48
2018-11-14T05:48:49.041Z,8.70
2018-11-14T05:51:18.761Z,10.03
2018-11-14T05:53:53.841Z,7.45
2018-11-14T05:56:35.341Z,8.53
2018-11-14T05:59:05.029Z,9.18
2018-11-14T06:01:48.373Z,8.68
2018-11-14T06:04:22.537Z,8.50
2018-11-14T06:06:56.637Z,10.10
2018-11-14T06:09:26.525Z,8.25
2018-11-14T06:12:01.977Z,9.38
2018-11-14T06:14:33.777Z,9.35
2018-11-14T06:17:04.645Z,8.15
2018-11-14T06:19:34.294Z,8.65
2018-11-14T06:22:05.233Z,9.45
2018-11-14T06:24:38.429Z,10.28
2018-11-14T06:27:12.657Z,9.25
2018-11-14T06:29:43.550Z,9.03
2018-11-14T06:32:13.202Z,8.40
2018-11-14T06:34:46.394Z,9.35
2018-11-14T06:37:26.697Z,9.35
2018-11-14T06:39:56.577Z,7.80
2018-11-14T06:42:27.569Z,8.45
2018-11-14T06:44:58.482Z,8.53
2018-11-14T06:47:29.325Z,8.85
2018-11-14T06:50:05.999Z,7.92
2018-11-14T06:52:40.052Z,7.28
2018-11-14T06:55:12.465Z,7.53
2018-11-14T06:57:56.337Z,6.55
2018-11-14T07:00:28.234Z,7.55
2018-11-14T07:03:00.902Z,7.17
2018-11-14T07:05:31.778Z,5.90
2018-11-14T07:08:03.565Z,7.65
2018-11-14T07:10:35.569Z,7.22
2018-11-14T07:13:08.248Z,8.18
2018-11-14T07:15:39.569Z,8.40
2018-11-14T07:18:11.146Z,8.18
2018-11-14T07:20:43.401Z,10.38
2018-11-14T07:23:14.047Z,9.40
2018-11-14T07:25:43.705Z,9.03
2018-11-14T07:28:13.253Z,9.40
2018-11-14T07:30:44.018Z,9.53
2018-11-14T07:33:15.853Z,8.90
2018-11-14T07:35:51.470Z,11.03
2018-11-14T07:38:40.754Z,11.57
2018-11-14T07:41:22.033Z,12.58
2018-11-14T07:43:52.787Z,14.35
2018-11-14T07:46:29.065Z,14.55
2018-11-14T07:48:59.187Z,17.65
2018-11-14T07:51:29.142Z,14.58
2018-11-14T07:53:59.206Z,18.92
2018-11-14T07:56:29.085Z,17.82
2018-11-14T07:58:58.650Z,14.55
2018-11-14T08:01:28.507Z,15.58
2018-11-14T08:04:01.712Z,13.28
2018-11-14T08:06:32.522Z,13.18
2018-11-14T08:09:02.226Z,14.50
2018-11-14T08:11:35.529Z,14.65
2018-11-14T08:14:05.162Z,13.70
2018-11-14T08:16:34.902Z,15.23
2018-11-14T08:19:05.190Z,13.68
2018-11-14T08:21:35.026Z,13.45
2018-11-14T08:24:05.894Z,17.60
2018-11-14T08:26:35.774Z,15.18
2018-11-14T08:29:06.290Z,14.50
2018-11-14T08:31:36.122Z,12.85
2018-11-14T08:34:06.206Z,13.65
2018-11-14T08:36:39.567Z,13.83
2018-11-14T08:39:10.487Z,15.58
2018-11-14T08:41:43.574Z,15.63
2018-11-14T08:44:17.434Z,16.12
2018-11-14T08:46:52.614Z,12.15
2018-11-14T08:49:22.541Z,10.40
2018-11-14T08:51:53.354Z,10.25
2018-11-14T08:54:23.257Z,10.20
2018-11-14T08:56:53.054Z,11.97
2018-11-14T08:59:23.910Z,10.90
2018-11-14T09:01:57.298Z,10.50
2018-11-14T09:04:27.814Z,10.23
2018-11-14T09:06:57.554Z,12.15
2018-11-14T09:09:27.547Z,10.50
2018-11-14T09:11:57.364Z,11.68
2018-11-14T09:14:28.274Z,12.43
2018-11-14T09:16:59.138Z,14.58
2018-11-14T09:19:29.134Z,13.80
2018-11-14T09:21:59.825Z,17.20
2018-11-14T09:24:29.466Z,14.70
2018-11-14T09:27:00.506Z,13.78
2018-11-14T09:29:30.466Z,15.03
2018-11-14T09:32:01.270Z,15.60
2018-11-14T09:34:34.056Z,16.60
2018-11-14T09:37:04.884Z,15.32
2018-11-14T09:39:35.713Z,15.58
2018-11-14T09:42:06.186Z,16.67
2018-11-14T09:44:36.640Z,17.20
2018-11-14T09:47:06.133Z,17.10
2018-11-14T09:49:36.698Z,18.30
2018-11-14T09:52:06.206Z,18.25
2018-11-14T09:54:35.694Z,18.23
2018-11-14T09:57:05.447Z,21.67
2018-11-14T09:59:40.786Z,15.17
2018-11-14T10:02:10.554Z,17.83
2018-11-14T10:04:41.446Z,18.73
2018-11-14T10:07:11.354Z,17.33
2018-11-14T10:09:41.242Z,15.03
2018-11-14T10:12:11.058Z,12.60
2018-11-14T10:14:40.874Z,13.17
2018-11-14T10:17:14.281Z,13.27
2018-11-14T10:19:44.174Z,12.23
2018-11-14T10:22:14.802Z,12.47
2018-11-14T10:24:45.335Z,11.43
2018-11-14T10:27:16.098Z,11.70
2018-11-14T10:29:45.761Z,10.63
2018-11-14T10:32:16.286Z,8.97
2018-11-14T10:34:46.862Z,10.80
2018-11-14T10:37:16.457Z,9.55
2018-11-14T10:39:46.982Z,9.60
2018-11-14T10:42:16.894Z,10.67
2018-11-14T10:44:46.785Z,11.10
2018-11-14T10:47:17.594Z,10.50
2018-11-14T10:49:51.962Z,16.70
2018-11-14T10:52:21.790Z,15.07
2018-11-14T10:54:51.672Z,15.03
2018-11-14T10:57:24.870Z,13.43
2018-11-14T10:59:55.710Z,12.83
2018-11-14T11:02:31.837Z,11.13
2018-11-14T11:05:06.990Z,12.23
2018-11-14T11:07:42.957Z,13.17
2018-11-14T11:10:21.601Z,12.40
2018-11-14T11:12:57.794Z,11.53
2018-11-14T11:15:39.742Z,11.33
2018-11-14T11:18:12.410Z,14.67
2018-11-14T11:20:42.403Z,15.30
2018-11-14T11:23:13.048Z,13.17
2018-11-14T11:25:42.763Z,17.90
2018-11-14T11:28:20.553Z,18.07
2018-11-14T11:30:56.466Z,10.70
2018-11-14T11:33:36.082Z,9.97
2018-11-14T11:36:05.661Z,9.10
2018-11-14T11:38:35.174Z,10.07
2018-11-14T11:41:04.962Z,14.93
2018-11-14T11:43:39.417Z,13.40
2018-11-14T11:46:09.297Z,10.17
2018-11-14T11:48:38.917Z,12.57
2018-11-14T11:51:09.554Z,12.80
2018-11-14T11:53:42.328Z,12.40
2018-11-14T11:56:13.034Z,12.80
2018-11-14T11:58:44.617Z,12.53
2018-11-14T12:01:21.529Z,8.00
2018-11-14T12:03:51.418Z,8.17
2018-11-14T12:06:22.238Z,11.63
2018-11-14T12:08:52.045Z,11.87
2018-11-14T12:11:21.737Z,13.33
2018-11-14T12:13:51.817Z,14.53
2018-11-14T12:16:22.542Z,14.80
2018-11-14T12:18:52.460Z,14.70
2018-11-14T12:21:22.200Z,11.10
2018-11-14T12:23:56.590Z,8.30
2018-11-14T12:26:26.398Z,10.00
2018-11-14T12:28:58.241Z,11.00
2018-11-14T12:31:45.580Z,12.63
2018-11-14T12:34:15.473Z,13.97
2018-11-14T12:36:48.609Z,12.10
2018-11-14T12:39:18.424Z,9.70
2018-11-14T12:41:48.287Z,10.33
2018-11-14T12:44:18.087Z,10.63
2018-11-14T12:46:48.921Z,10.90
2018-11-14T12:49:19.462Z,9.53
2018-11-14T12:51:49.317Z,12.23
2018-11-14T12:54:19.125Z,12.20
2018-11-14T12:56:48.786Z,12.83
2018-11-14T12:59:31.010Z,13.53
2018-11-14T13:02:00.634Z,12.20
2018-11-14T13:04:30.397Z,12.50
2018-11-14T13:07:04.030Z,14.40
2018-11-14T13:09:35.726Z,11.73
2018-11-14T13:12:05.794Z,16.60
2018-11-14T13:15:03.650Z,15.70
2018-11-14T13:17:33.473Z,18.50
2018-11-14T13:20:03.322Z,16.50
2018-11-14T13:22:33.131Z,15.13
2018-11-14T13:25:07.275Z,16.13
2018-11-14T13:27:37.057Z,18.13
2018-11-14T13:30:09.283Z,17.57
2018-11-14T13:32:45.749Z,17.70
2018-11-14T13:35:16.783Z,18.20
2018-11-14T13:37:50.365Z,18.07
2018-11-14T13:40:20.254Z,15.73
2018-11-14T13:42:51.070Z,20.03
2018-11-14T13:45:20.890Z,17.80
2018-11-14T13:47:54.837Z,17.93
2018-11-14T13:50:25.470Z,16.50
2018-11-14T13:52:55.234Z,14.37
2018-11-14T13:55:24.970Z,12.37
2018-11-14T13:57:55.613Z,12.13
2018-11-14T14:00:25.070Z,11.37
2018-11-14T14:02:54.906Z,13.03
2018-11-14T14:05:25.814Z,12.10
2018-11-14T14:07:56.740Z,11.77
2018-11-14T14:10:29.866Z,11.40
2018-11-14T14:13:02.846Z,10.03
2018-11-14T14:15:33.734Z,11.17
2018-11-14T14:18:07.573Z,10.20
2018-11-14T14:20:43.775Z,9.20
2018-11-14T14:23:16.731Z,18.00
2018-11-14T14:25:47.698Z,9.00
2018-11-14T14:28:18.606Z,8.57
2018-11-14T14:30:49.565Z,9.87
2018-11-14T14:33:19.442Z,8.37
2018-11-14T14:35:52.218Z,10.50
2018-11-14T14:38:21.834Z,8.67
2018-11-14T14:40:51.562Z,10.10
2018-11-14T14:43:24.866Z,8.70
2018-11-14T14:45:59.450Z,10.77
2018-11-14T14:48:29.374Z,9.60
2018-11-14T14:50:59.342Z,11.10
2018-11-14T14:53:29.222Z,9.20
2018-11-14T14:55:59.166Z,9.07
2018-11-14T14:58:33.350Z,10.23
2018-11-14T15:01:04.282Z,9.58
2018-11-14T15:03:36.190Z,9.68
2018-11-14T15:06:06.555Z,8.50
2018-11-14T15:08:37.182Z,10.47
2018-11-14T15:11:06.718Z,10.28
2018-11-14T15:13:36.408Z,9.83
2018-11-14T15:16:06.338Z,10.00
2018-11-14T15:18:36.366Z,10.53
2018-11-14T15:21:07.806Z,11.47
2018-11-14T15:23:43.846Z,11.70
2018-11-14T15:26:13.502Z,10.88
2018-11-14T15:28:45.011Z,11.60
2018-11-14T15:31:14.737Z,11.55
2018-11-14T15:33:44.539Z,12.10
2018-11-14T15:36:14.346Z,12.93
2018-11-14T15:38:44.190Z,13.28
2018-11-14T15:41:13.996Z,14.47
2018-11-14T15:43:43.633Z,12.93
2018-11-14T15:46:13.438Z,15.18
2018-11-14T15:48:48.178Z,15.38
2018-11-14T15:51:18.746Z,16.60
2018-11-14T15:53:52.378Z,19.25
2018-11-14T15:56:23.130Z,20.72
2018-11-14T15:59:00.554Z,20.92
2018-11-14T16:01:30.214Z,18.60
2018-11-14T16:04:00.131Z,18.10
2018-11-14T16:06:29.946Z,22.00
2018-11-14T16:09:00.582Z,18.80
2018-11-14T16:11:35.298Z,18.30
2018-11-14T16:14:06.266Z,20.80
2018-11-14T16:16:36.186Z,20.77
2018-11-14T16:19:07.710Z,18.67
2018-11-14T16:21:42.130Z,20.25
2018-11-14T16:24:15.230Z,18.65
2018-11-14T16:26:45.018Z,20.48
2018-11-14T16:29:14.815Z,20.45
2018-11-14T16:31:47.697Z,19.65
2018-11-14T16:34:20.434Z,18.40
2018-11-14T16:36:49.998Z,20.45
2018-11-14T16:39:23.626Z,17.52
2018-11-14T16:41:54.401Z,18.77
2018-11-14T16:44:24.172Z,16.05
2018-11-14T16:46:53.945Z,18.42
2018-11-14T16:49:30.902Z,17.62
2018-11-14T16:52:01.798Z,19.40
2018-11-14T16:54:31.687Z,20.00
2018-11-14T16:57:07.390Z,17.87
2018-11-14T16:59:44.094Z,21.10
2018-11-14T17:02:13.806Z,20.40
2018-11-14T17:04:43.666Z,22.02
2018-11-14T17:07:13.578Z,20.35
2018-11-14T17:09:45.346Z,20.45
2018-11-14T17:12:15.678Z,20.48
2018-11-14T17:14:55.152Z,19.00
2018-11-14T17:17:32.234Z,21.35
2018-11-14T17:20:02.019Z,19.17
2018-11-14T17:22:31.874Z,17.98
2018-11-14T17:25:01.494Z,17.65
2018-11-14T17:27:36.386Z,16.27
2018-11-14T17:30:10.018Z,17.60
2018-11-14T17:32:40.958Z,18.07
2018-11-14T17:35:12.598Z,18.90
2018-11-14T17:37:43.325Z,16.60
2018-11-14T17:40:16.319Z,18.17
2018-11-14T17:42:46.833Z,18.70
2018-11-14T17:45:19.415Z,19.70
2018-11-14T17:47:53.114Z,20.72
2018-11-14T17:50:24.999Z,19.07
2018-11-14T17:52:55.455Z,22.55
2018-11-14T17:55:25.633Z,20.60
2018-11-14T17:57:56.307Z,20.75
2018-11-14T18:00:28.153Z,19.57
2018-11-14T18:03:02.171Z,20.12
2018-11-14T18:05:32.885Z,19.20
2018-11-14T18:08:02.640Z,20.30
2018-11-14T18:10:32.502Z,22.27
2018-11-14T18:13:04.286Z,20.95
2018-11-14T18:15:34.391Z,20.23
2018-11-14T18:18:04.162Z,20.45
2018-11-14T18:20:36.003Z,20.62
2018-11-14T18:23:06.590Z,20.23
2018-11-14T18:25:36.438Z,20.40
2018-11-14T18:28:18.247Z,19.10
2018-11-14T18:30:48.834Z,21.77
2018-11-14T18:33:18.535Z,21.05
2018-11-14T18:35:48.415Z,21.48
2018-11-14T18:38:18.997Z,24.40
2018-11-14T18:40:48.800Z,21.70
2018-11-14T18:43:18.699Z,22.98
2018-11-14T18:45:48.581Z,21.52
2018-11-14T18:48:18.202Z,21.70
2018-11-14T18:50:48.019Z,18.80
2018-11-14T18:53:17.595Z,16.62
2018-11-14T18:55:47.223Z,17.87
2018-11-14T18:58:17.150Z,16.27
2018-11-14T19:00:47.019Z,16.52
2018-11-14T19:03:20.071Z,17.32
2018-11-14T19:05:51.771Z,16.52
2018-11-14T19:08:21.631Z,17.23
2018-11-14T19:10:51.499Z,16.75
2018-11-14T19:13:21.399Z,19.70
2018-11-14T19:15:53.235Z,18.35
2018-11-14T19:18:25.187Z,15.70
2018-11-14T19:20:59.754Z,17.45
2018-11-14T19:23:30.492Z,17.80
2018-11-14T19:26:00.395Z,18.70
2018-11-14T19:28:30.116Z,17.65
2018-11-14T19:30:59.675Z,15.90
2018-11-14T19:33:29.541Z,17.55
2018-11-14T19:36:05.255Z,16.57
2018-11-14T19:38:35.070Z,18.05
2018-11-14T19:41:05.765Z,17.12
2018-11-14T19:43:36.203Z,17.30
2018-11-14T19:46:07.620Z,18.60
2018-11-14T19:48:38.035Z,17.35
2018-11-14T19:51:07.731Z,19.12
2018-11-14T19:53:37.363Z,18.85
2018-11-14T19:56:06.944Z,17.80
2018-11-14T19:58:36.578Z,17.95
2018-11-14T20:01:07.099Z,18.75
2018-11-14T20:03:36.903Z,18.52
2018-11-14T20:06:06.652Z,18.60
2018-11-14T20:08:39.519Z,18.37
2018-11-14T20:11:10.183Z,17.35
2018-11-14T20:13:39.847Z,17.20
2018-11-14T20:16:12.823Z,18.27
2018-11-14T20:18:42.471Z,20.08
2018-11-14T20:21:12.003Z,18.02
2018-11-14T20:23:42.843Z,18.48
2018-11-14T20:26:13.833Z,17.90
2018-11-14T20:28:43.427Z,18.50
2018-11-14T20:31:14.267Z,15.80
2018-11-14T20:33:43.843Z,18.20
2018-11-14T20:36:13.607Z,20.70
2018-11-14T20:38:45.503Z,22.30
2018-11-14T20:41:16.183Z,21.27
2018-11-14T20:43:45.751Z,20.10
2018-11-14T20:46:15.379Z,20.48
2018-11-14T20:48:44.895Z,22.37
2018-11-14T20:51:15.631Z,22.73
2018-11-14T20:53:46.307Z,20.08
2018-11-14T20:56:16.187Z,22.32
2018-11-14T20:58:47.819Z,20.35
2018-11-14T21:01:18.734Z,22.00
2018-11-14T21:03:49.366Z,22.93
2018-11-14T21:06:18.947Z,21.60
2018-11-14T21:08:48.744Z,21.60
2018-11-14T21:11:20.635Z,19.23
2018-11-14T21:13:50.551Z,20.95
2018-11-14T21:16:20.467Z,19.52
2018-11-14T21:18:55.770Z,18.75
2018-11-14T21:21:25.571Z,21.15
2018-11-14T21:23:56.171Z,21.12
2018-11-14T21:26:25.758Z,19.85
2018-11-14T21:28:55.483Z,18.50
2018-11-14T21:31:25.687Z,19.98
2018-11-14T21:33:56.403Z,16.77
2018-11-14T21:36:26.064Z,17.05
2018-11-14T21:38:55.847Z,17.45
2018-11-14T21:41:25.691Z,17.92
2018-11-14T21:44:00.223Z,18.00
2018-11-14T21:46:29.951Z,17.40
2018-11-14T21:49:01.135Z,16.93
2018-11-14T21:51:31.039Z,16.67
2018-11-14T21:54:03.207Z,14.18
2018-11-14T21:56:33.847Z,14.60
2018-11-14T21:59:03.643Z,16.55
2018-11-14T22:01:34.580Z,15.63
2018-11-14T22:04:06.635Z,14.55
2018-11-14T22:06:36.442Z,15.15
2018-11-14T22:09:09.027Z,16.62
2018-11-14T22:11:38.907Z,16.60
2018-11-14T22:14:08.815Z,16.05
2018-11-14T22:16:38.503Z,15.13
2018-11-14T22:19:08.215Z,17.77
2018-11-14T22:21:39.179Z,16.40
2018-11-14T22:24:08.788Z,16.35
2018-11-14T22:26:38.667Z,15.60
2018-11-14T22:29:08.345Z,17.80
2018-11-14T22:31:38.139Z,16.32
2018-11-14T22:34:07.743Z,17.23
2018-11-14T22:36:41.050Z,16.17
2018-11-14T22:39:10.624Z,17.23
2018-11-14T22:41:40.211Z,17.23
2018-11-14T22:44:11.783Z,17.75
2018-11-14T22:46:41.319Z,16.93
2018-11-14T22:49:10.809Z,19.48
2018-11-14T22:51:40.435Z,18.10
2018-11-14T22:54:13.275Z,15.83
2018-11-14T22:56:42.823Z,17.77
2018-11-14T22:59:14.576Z,15.60
2018-11-14T23:01:47.303Z,15.90
2018-11-14T23:04:17.010Z,16.67
2018-11-14T23:06:48.739Z,16.52
2018-11-14T23:09:18.279Z,15.28
2018-11-14T23:11:53.698Z,14.43
2018-11-14T23:14:25.415Z,14.23
2018-11-14T23:16:55.323Z,15.18
2018-11-14T23:19:30.586Z,17.57
2018-11-14T23:22:04.266Z,14.83
2018-11-14T23:24:33.381Z,15.30
2018-11-14T23:27:05.147Z,14.18
2018-11-14T23:29:39.487Z,17.57
2018-11-14T23:32:14.226Z,16.37
2018-11-14T23:34:51.515Z,17.35
2018-11-14T23:37:22.495Z,13.83
2018-11-14T23:39:52.771Z,16.40
2018-11-14T23:42:22.507Z,17.85
2018-11-14T23:44:52.266Z,15.72
2018-11-14T23:47:21.810Z,15.08
2018-11-14T23:49:51.467Z,16.12
2018-11-14T23:52:21.251Z,15.38
2018-11-14T23:54:51.163Z,13.93
2018-11-14T23:57:21.115Z,16.20
2018-11-14T23:59:51.011Z,16.32
